sensor_id;sensor_type;location;lat;lon;timestamp;P1;durP1;ratioP1;P2;durP2;ratioP2
26181;SDS011;13927;51.534;11.866;2024-01-16T00:00:14;6.88;;;2.83;;
26181;SDS011;13927;51.534;11.866;2024-01-16T00:02:40;4.38;;;2.50;;
26181;SDS011;13927;51.534;11.866;2024-01-16T00:05:06;5.28;;;2.72;;
26181;SDS011;13927;51.534;11.866;2024-01-16T00:07:35;4.63;;;2.83;;
26181;SDS011;13927;51.534;11.866;2024-01-16T00:10:07;3.97;;;2.10;;
26181;SDS011;13927;51.534;11.866;2024-01-16T00:12:35;4.18;;;2.55;;
26181;SDS011;13927;51.534;11.866;2024-01-16T00:15:01;3.58;;;2.03;;
26181;SDS011;13927;51.534;11.866;2024-01-16T00:17:27;6.40;;;2.70;;
26181;SDS011;13927;51.534;11.866;2024-01-16T00:19:53;6.28;;;2.72;;
26181;SDS011;13927;51.534;11.866;2024-01-16T00:22:19;3.65;;;2.13;;
26181;SDS011;13927;51.534;11.866;2024-01-16T00:24:46;4.60;;;2.50;;
26181;SDS011;13927;51.534;11.866;2024-01-16T00:27:12;3.55;;;2.25;;
26181;SDS011;13927;51.534;11.866;2024-01-16T00:29:39;3.65;;;2.70;;
26181;SDS011;13927;51.534;11.866;2024-01-16T00:32:05;3.75;;;2.20;;
26181;SDS011;13927;51.534;11.866;2024-01-16T00:34:32;9.60;;;2.75;;
26181;SDS011;13927;51.534;11.866;2024-01-16T00:36:58;4.20;;;2.63;;
26181;SDS011;13927;51.534;11.866;2024-01-16T00:39:24;4.05;;;2.33;;
26181;SDS011;13927;51.534;11.866;2024-01-16T00:41:51;2.55;;;1.80;;
26181;SDS011;13927;51.534;11.866;2024-01-16T00:44:17;3.95;;;2.20;;
26181;SDS011;13927;51.534;11.866;2024-01-16T00:46:44;3.67;;;1.98;;
26181;SDS011;13927;51.534;11.866;2024-01-16T00:49:10;3.95;;;1.92;;
26181;SDS011;13927;51.534;11.866;2024-01-16T00:51:36;3.22;;;2.08;;
26181;SDS011;13927;51.534;11.866;2024-01-16T00:54:03;4.05;;;1.90;;
26181;SDS011;13927;51.534;11.866;2024-01-16T00:56:31;3.97;;;1.90;;
26181;SDS011;13927;51.534;11.866;2024-01-16T00:58:59;4.38;;;2.13;;
26181;SDS011;13927;51.534;11.866;2024-01-16T01:01:26;3.92;;;1.83;;
26181;SDS011;13927;51.534;11.866;2024-01-16T01:03:52;5.22;;;2.13;;
26181;SDS011;13927;51.534;11.866;2024-01-16T01:06:20;2.90;;;1.45;;
26181;SDS011;13927;51.534;11.866;2024-01-16T01:08:46;3.17;;;1.65;;
26181;SDS011;13927;51.534;11.866;2024-01-16T01:11:12;3.05;;;1.52;;
26181;SDS011;13927;51.534;11.866;2024-01-16T01:13:39;3.33;;;1.67;;
26181;SDS011;13927;51.534;11.866;2024-01-16T01:16:05;2.67;;;1.40;;
26181;SDS011;13927;51.534;11.866;2024-01-16T01:18:32;1.25;;;0.90;;
26181;SDS011;13927;51.534;11.866;2024-01-16T01:20:58;2.53;;;1.80;;
26181;SDS011;13927;51.534;11.866;2024-01-16T01:23:24;4.10;;;1.15;;
26181;SDS011;13927;51.534;11.866;2024-01-16T01:25:51;2.33;;;1.23;;
26181;SDS011;13927;51.534;11.866;2024-01-16T01:28:17;1.67;;;1.30;;
26181;SDS011;13927;51.534;11.866;2024-01-16T01:30:44;2.85;;;1.23;;
26181;SDS011;13927;51.534;11.866;2024-01-16T01:33:10;1.35;;;0.98;;
26181;SDS011;13927;51.534;11.866;2024-01-16T01:35:37;1.75;;;0.93;;
26181;SDS011;13927;51.534;11.866;2024-01-16T01:38:03;1.48;;;1.08;;
26181;SDS011;13927;51.534;11.866;2024-01-16T01:40:29;4.18;;;1.40;;
26181;SDS011;13927;51.534;11.866;2024-01-16T01:42:56;1.00;;;0.82;;
26181;SDS011;13927;51.534;11.866;2024-01-16T01:45:22;3.55;;;0.88;;
26181;SDS011;13927;51.534;11.866;2024-01-16T01:47:48;3.10;;;0.93;;
26181;SDS011;13927;51.534;11.866;2024-01-16T01:50:15;2.92;;;1.10;;
26181;SDS011;13927;51.534;11.866;2024-01-16T01:52:42;1.88;;;1.13;;
26181;SDS011;13927;51.534;11.866;2024-01-16T01:55:10;3.78;;;1.20;;
26181;SDS011;13927;51.534;11.866;2024-01-16T01:57:39;1.60;;;0.98;;
26181;SDS011;13927;51.534;11.866;2024-01-16T02:00:08;1.33;;;0.88;;
26181;SDS011;13927;51.534;11.866;2024-01-16T02:02:35;2.67;;;0.98;;
26181;SDS011;13927;51.534;11.866;2024-01-16T02:05:01;1.25;;;0.82;;
26181;SDS011;13927;51.534;11.866;2024-01-16T02:07:28;2.83;;;1.10;;
26181;SDS011;13927;51.534;11.866;2024-01-16T02:09:56;0.85;;;0.60;;
26181;SDS011;13927;51.534;11.866;2024-01-16T02:12:25;2.90;;;1.00;;
26181;SDS011;13927;51.534;11.866;2024-01-16T02:14:51;3.05;;;0.73;;
26181;SDS011;13927;51.534;11.866;2024-01-16T02:17:17;0.93;;;0.50;;
26181;SDS011;13927;51.534;11.866;2024-01-16T02:19:43;1.42;;;0.50;;
26181;SDS011;13927;51.534;11.866;2024-01-16T02:22:09;1.85;;;0.52;;
26181;SDS011;13927;51.534;11.866;2024-01-16T02:24:46;2.78;;;0.73;;
26181;SDS011;13927;51.534;11.866;2024-01-16T02:27:13;1.65;;;0.63;;
26181;SDS011;13927;51.534;11.866;2024-01-16T02:29:42;3.60;;;0.68;;
26181;SDS011;13927;51.534;11.866;2024-01-16T02:32:09;2.58;;;0.70;;
26181;SDS011;13927;51.534;11.866;2024-01-16T02:34:37;1.60;;;0.75;;
26181;SDS011;13927;51.534;11.866;2024-01-16T02:37:03;1.70;;;0.60;;
26181;SDS011;13927;51.534;11.866;2024-01-16T02:39:29;1.15;;;0.68;;
26181;SDS011;13927;51.534;11.866;2024-01-16T02:41:55;3.25;;;0.63;;
26181;SDS011;13927;51.534;11.866;2024-01-16T02:44:21;2.13;;;0.57;;
26181;SDS011;13927;51.534;11.866;2024-01-16T02:46:47;0.95;;;0.70;;
26181;SDS011;13927;51.534;11.866;2024-01-16T02:49:13;2.03;;;1.52;;
26181;SDS011;13927;51.534;11.866;2024-01-16T02:51:38;2.42;;;0.70;;
26181;SDS011;13927;51.534;11.866;2024-01-16T02:54:05;1.38;;;0.60;;
26181;SDS011;13927;51.534;11.866;2024-01-16T02:56:33;1.90;;;0.68;;
26181;SDS011;13927;51.534;11.866;2024-01-16T02:58:59;2.00;;;0.55;;
26181;SDS011;13927;51.534;11.866;2024-01-16T03:01:24;1.52;;;0.63;;
26181;SDS011;13927;51.534;11.866;2024-01-16T03:03:50;0.98;;;0.65;;
26181;SDS011;13927;51.534;11.866;2024-01-16T03:06:22;0.65;;;0.40;;
26181;SDS011;13927;51.534;11.866;2024-01-16T03:08:49;3.47;;;0.70;;
26181;SDS011;13927;51.534;11.866;2024-01-16T03:11:16;0.52;;;0.43;;
26181;SDS011;13927;51.534;11.866;2024-01-16T03:13:42;0.80;;;0.63;;
26181;SDS011;13927;51.534;11.866;2024-01-16T03:16:08;1.38;;;0.45;;
26181;SDS011;13927;51.534;11.866;2024-01-16T03:18:36;1.60;;;0.50;;
26181;SDS011;13927;51.534;11.866;2024-01-16T03:21:03;1.15;;;0.73;;
26181;SDS011;13927;51.534;11.866;2024-01-16T03:23:30;0.80;;;0.40;;
26181;SDS011;13927;51.534;11.866;2024-01-16T03:25:56;1.08;;;0.50;;
26181;SDS011;13927;51.534;11.866;2024-01-16T03:28:22;1.20;;;0.60;;
26181;SDS011;13927;51.534;11.866;2024-01-16T03:30:48;2.20;;;0.52;;
26181;SDS011;13927;51.534;11.866;2024-01-16T03:33:14;2.10;;;0.73;;
26181;SDS011;13927;51.534;11.866;2024-01-16T03:35:39;0.88;;;0.73;;
26181;SDS011;13927;51.534;11.866;2024-01-16T03:38:05;1.30;;;0.40;;
26181;SDS011;13927;51.534;11.866;2024-01-16T03:40:31;2.22;;;0.40;;
26181;SDS011;13927;51.534;11.866;2024-01-16T03:42:59;0.50;;;0.40;;
26181;SDS011;13927;51.534;11.866;2024-01-16T03:45:26;1.05;;;0.50;;
26181;SDS011;13927;51.534;11.866;2024-01-16T03:47:52;0.88;;;0.50;;
26181;SDS011;13927;51.534;11.866;2024-01-16T03:50:17;2.17;;;0.73;;
26181;SDS011;13927;51.534;11.866;2024-01-16T03:52:43;2.30;;;0.73;;
26181;SDS011;13927;51.534;11.866;2024-01-16T03:55:09;5.18;;;0.85;;
26181;SDS011;13927;51.534;11.866;2024-01-16T03:57:34;6.05;;;0.68;;
26181;SDS011;13927;51.534;11.866;2024-01-16T04:00:00;3.10;;;0.82;;
26181;SDS011;13927;51.534;11.866;2024-01-16T04:02:26;2.63;;;0.50;;
26181;SDS011;13927;51.534;11.866;2024-01-16T04:04:51;1.35;;;0.65;;
26181;SDS011;13927;51.534;11.866;2024-01-16T04:07:17;3.25;;;0.60;;
26181;SDS011;13927;51.534;11.866;2024-01-16T04:09:43;4.57;;;0.82;;
26181;SDS011;13927;51.534;11.866;2024-01-16T04:12:09;0.50;;;0.50;;
26181;SDS011;13927;51.534;11.866;2024-01-16T04:14:35;2.15;;;1.02;;
26181;SDS011;13927;51.534;11.866;2024-01-16T04:17:01;2.60;;;0.50;;
26181;SDS011;13927;51.534;11.866;2024-01-16T04:19:27;1.10;;;0.75;;
26181;SDS011;13927;51.534;11.866;2024-01-16T04:21:53;3.80;;;0.60;;
26181;SDS011;13927;51.534;11.866;2024-01-16T04:24:19;1.40;;;0.55;;
26181;SDS011;13927;51.534;11.866;2024-01-16T04:26:44;1.30;;;0.52;;
26181;SDS011;13927;51.534;11.866;2024-01-16T04:29:10;7.90;;;0.70;;
26181;SDS011;13927;51.534;11.866;2024-01-16T04:31:40;1.20;;;0.75;;
26181;SDS011;13927;51.534;11.866;2024-01-16T04:34:08;1.27;;;0.52;;
26181;SDS011;13927;51.534;11.866;2024-01-16T04:36:34;5.60;;;1.15;;
26181;SDS011;13927;51.534;11.866;2024-01-16T04:39:00;1.75;;;0.55;;
26181;SDS011;13927;51.534;11.866;2024-01-16T04:41:28;0.85;;;0.52;;
26181;SDS011;13927;51.534;11.866;2024-01-16T04:43:54;3.97;;;0.52;;
26181;SDS011;13927;51.534;11.866;2024-01-16T04:46:20;1.88;;;0.73;;
26181;SDS011;13927;51.534;11.866;2024-01-16T04:48:46;0.80;;;0.47;;
26181;SDS011;13927;51.534;11.866;2024-01-16T04:51:11;2.38;;;0.50;;
26181;SDS011;13927;51.534;11.866;2024-01-16T04:53:37;0.70;;;0.50;;
26181;SDS011;13927;51.534;11.866;2024-01-16T04:56:03;2.22;;;1.08;;
26181;SDS011;13927;51.534;11.866;2024-01-16T04:58:29;1.88;;;0.70;;
26181;SDS011;13927;51.534;11.866;2024-01-16T05:00:56;2.35;;;0.65;;
26181;SDS011;13927;51.534;11.866;2024-01-16T05:03:22;2.30;;;0.70;;
26181;SDS011;13927;51.534;11.866;2024-01-16T05:05:48;0.90;;;0.68;;
26181;SDS011;13927;51.534;11.866;2024-01-16T05:08:13;1.20;;;0.95;;
26181;SDS011;13927;51.534;11.866;2024-01-16T05:10:39;1.80;;;0.80;;
26181;SDS011;13927;51.534;11.866;2024-01-16T05:13:05;1.88;;;0.63;;
26181;SDS011;13927;51.534;11.866;2024-01-16T05:15:31;4.10;;;1.23;;
26181;SDS011;13927;51.534;11.866;2024-01-16T05:17:56;3.40;;;1.17;;
26181;SDS011;13927;51.534;11.866;2024-01-16T05:20:22;2.60;;;1.00;;
26181;SDS011;13927;51.534;11.866;2024-01-16T05:22:48;3.03;;;0.88;;
26181;SDS011;13927;51.534;11.866;2024-01-16T05:25:13;1.73;;;1.10;;
26181;SDS011;13927;51.534;11.866;2024-01-16T05:27:40;1.70;;;1.20;;
26181;SDS011;13927;51.534;11.866;2024-01-16T05:30:06;2.03;;;1.20;;
26181;SDS011;13927;51.534;11.866;2024-01-16T05:32:33;2.85;;;1.38;;
26181;SDS011;13927;51.534;11.866;2024-01-16T05:34:59;2.78;;;1.20;;
26181;SDS011;13927;51.534;11.866;2024-01-16T05:37:25;2.60;;;1.30;;
26181;SDS011;13927;51.534;11.866;2024-01-16T05:39:50;3.47;;;2.38;;
26181;SDS011;13927;51.534;11.866;2024-01-16T05:42:16;2.70;;;1.13;;
26181;SDS011;13927;51.534;11.866;2024-01-16T05:44:42;2.58;;;1.13;;
26181;SDS011;13927;51.534;11.866;2024-01-16T05:47:08;1.67;;;1.17;;
26181;SDS011;13927;51.534;11.866;2024-01-16T05:49:33;3.83;;;1.73;;
26181;SDS011;13927;51.534;11.866;2024-01-16T05:51:59;2.22;;;0.95;;
26181;SDS011;13927;51.534;11.866;2024-01-16T05:54:25;6.47;;;1.35;;
26181;SDS011;13927;51.534;11.866;2024-01-16T05:56:50;3.42;;;1.40;;
26181;SDS011;13927;51.534;11.866;2024-01-16T05:59:16;3.25;;;1.20;;
26181;SDS011;13927;51.534;11.866;2024-01-16T06:01:42;3.80;;;1.10;;
26181;SDS011;13927;51.534;11.866;2024-01-16T06:04:08;2.97;;;1.02;;
26181;SDS011;13927;51.534;11.866;2024-01-16T06:06:33;2.83;;;0.75;;
26181;SDS011;13927;51.534;11.866;2024-01-16T06:08:59;2.10;;;0.88;;
26181;SDS011;13927;51.534;11.866;2024-01-16T06:11:32;1.20;;;0.70;;
26181;SDS011;13927;51.534;11.866;2024-01-16T06:13:59;3.03;;;1.00;;
26181;SDS011;13927;51.534;11.866;2024-01-16T06:16:25;3.13;;;0.85;;
26181;SDS011;13927;51.534;11.866;2024-01-16T06:18:51;1.85;;;0.63;;
26181;SDS011;13927;51.534;11.866;2024-01-16T06:21:17;1.40;;;0.68;;
26181;SDS011;13927;51.534;11.866;2024-01-16T06:23:43;0.90;;;0.70;;
26181;SDS011;13927;51.534;11.866;2024-01-16T06:26:09;4.43;;;0.65;;
26181;SDS011;13927;51.534;11.866;2024-01-16T06:28:34;1.27;;;0.80;;
26181;SDS011;13927;51.534;11.866;2024-01-16T06:31:00;3.75;;;1.30;;
26181;SDS011;13927;51.534;11.866;2024-01-16T06:33:26;6.05;;;1.27;;
26181;SDS011;13927;51.534;11.866;2024-01-16T06:35:53;3.10;;;1.55;;
26181;SDS011;13927;51.534;11.866;2024-01-16T06:38:20;5.68;;;1.52;;
26181;SDS011;13927;51.534;11.866;2024-01-16T06:40:46;4.60;;;1.40;;
26181;SDS011;13927;51.534;11.866;2024-01-16T06:43:12;5.80;;;1.88;;
26181;SDS011;13927;51.534;11.866;2024-01-16T06:45:41;3.53;;;1.95;;
26181;SDS011;13927;51.534;11.866;2024-01-16T06:48:10;2.55;;;1.25;;
26181;SDS011;13927;51.534;11.866;2024-01-16T06:50:35;3.78;;;1.92;;
26181;SDS011;13927;51.534;11.866;2024-01-16T06:53:01;9.68;;;2.30;;
26181;SDS011;13927;51.534;11.866;2024-01-16T06:55:27;4.15;;;2.17;;
26181;SDS011;13927;51.534;11.866;2024-01-16T06:57:53;5.40;;;3.00;;
26181;SDS011;13927;51.534;11.866;2024-01-16T07:00:19;4.72;;;2.35;;
26181;SDS011;13927;51.534;11.866;2024-01-16T07:02:46;3.53;;;2.10;;
26181;SDS011;13927;51.534;11.866;2024-01-16T07:05:11;3.45;;;2.00;;
26181;SDS011;13927;51.534;11.866;2024-01-16T07:07:37;4.88;;;2.13;;
26181;SDS011;13927;51.534;11.866;2024-01-16T07:10:03;4.53;;;2.42;;
26181;SDS011;13927;51.534;11.866;2024-01-16T07:12:33;9.90;;;2.50;;
26181;SDS011;13927;51.534;11.866;2024-01-16T07:14:59;5.80;;;2.30;;
26181;SDS011;13927;51.534;11.866;2024-01-16T07:17:25;8.32;;;2.28;;
26181;SDS011;13927;51.534;11.866;2024-01-16T07:19:51;7.15;;;1.67;;
26181;SDS011;13927;51.534;11.866;2024-01-16T07:22:16;4.57;;;2.38;;
26181;SDS011;13927;51.534;11.866;2024-01-16T07:24:42;6.63;;;3.20;;
26181;SDS011;13927;51.534;11.866;2024-01-16T07:27:08;4.70;;;2.55;;
26181;SDS011;13927;51.534;11.866;2024-01-16T07:29:34;5.43;;;2.33;;
26181;SDS011;13927;51.534;11.866;2024-01-16T07:31:59;6.35;;;2.67;;
26181;SDS011;13927;51.534;11.866;2024-01-16T07:34:25;11.13;;;2.75;;
26181;SDS011;13927;51.534;11.866;2024-01-16T07:36:51;6.80;;;3.00;;
26181;SDS011;13927;51.534;11.866;2024-01-16T07:39:17;6.00;;;3.28;;
26181;SDS011;13927;51.534;11.866;2024-01-16T07:41:42;9.10;;;3.33;;
26181;SDS011;13927;51.534;11.866;2024-01-16T07:44:08;7.80;;;4.07;;
26181;SDS011;13927;51.534;11.866;2024-01-16T07:46:34;8.25;;;3.30;;
26181;SDS011;13927;51.534;11.866;2024-01-16T07:49:00;6.20;;;3.67;;
26181;SDS011;13927;51.534;11.866;2024-01-16T07:51:25;8.15;;;3.10;;
26181;SDS011;13927;51.534;11.866;2024-01-16T07:53:59;9.23;;;3.28;;
26181;SDS011;13927;51.534;11.866;2024-01-16T07:56:31;9.07;;;3.33;;
26181;SDS011;13927;51.534;11.866;2024-01-16T07:58:58;5.05;;;3.25;;
26181;SDS011;13927;51.534;11.866;2024-01-16T08:01:24;10.02;;;3.78;;
26181;SDS011;13927;51.534;11.866;2024-01-16T08:03:50;9.18;;;4.20;;
26181;SDS011;13927;51.534;11.866;2024-01-16T08:06:16;6.70;;;4.13;;
26181;SDS011;13927;51.534;11.866;2024-01-16T08:08:41;8.63;;;4.03;;
26181;SDS011;13927;51.534;11.866;2024-01-16T08:11:07;11.43;;;3.67;;
26181;SDS011;13927;51.534;11.866;2024-01-16T08:13:33;8.30;;;3.83;;
26181;SDS011;13927;51.534;11.866;2024-01-16T08:15:59;6.65;;;3.35;;
26181;SDS011;13927;51.534;11.866;2024-01-16T08:18:25;8.60;;;3.10;;
26181;SDS011;13927;51.534;11.866;2024-01-16T08:20:51;7.97;;;4.28;;
26181;SDS011;13927;51.534;11.866;2024-01-16T08:23:17;5.40;;;2.47;;
26181;SDS011;13927;51.534;11.866;2024-01-16T08:25:43;8.90;;;2.88;;
26181;SDS011;13927;51.534;11.866;2024-01-16T08:28:09;4.82;;;2.70;;
26181;SDS011;13927;51.534;11.866;2024-01-16T08:30:35;7.05;;;2.80;;
26181;SDS011;13927;51.534;11.866;2024-01-16T08:33:01;3.97;;;1.80;;
26181;SDS011;13927;51.534;11.866;2024-01-16T08:35:27;4.70;;;2.67;;
26181;SDS011;13927;51.534;11.866;2024-01-16T08:37:53;8.27;;;3.60;;
26181;SDS011;13927;51.534;11.866;2024-01-16T08:40:19;5.85;;;2.60;;
26181;SDS011;13927;51.534;11.866;2024-01-16T08:42:45;7.38;;;3.05;;
26181;SDS011;13927;51.534;11.866;2024-01-16T08:45:16;8.98;;;2.25;;
26181;SDS011;13927;51.534;11.866;2024-01-16T08:47:42;6.00;;;2.65;;
26181;SDS011;13927;51.534;11.866;2024-01-16T08:50:08;6.13;;;2.55;;
26181;SDS011;13927;51.534;11.866;2024-01-16T08:52:35;7.00;;;2.20;;
26181;SDS011;13927;51.534;11.866;2024-01-16T08:55:02;5.75;;;2.70;;
26181;SDS011;13927;51.534;11.866;2024-01-16T08:57:29;6.43;;;2.30;;
26181;SDS011;13927;51.534;11.866;2024-01-16T08:59:55;14.18;;;3.20;;
26181;SDS011;13927;51.534;11.866;2024-01-16T09:02:21;8.63;;;3.05;;
26181;SDS011;13927;51.534;11.866;2024-01-16T09:04:47;5.65;;;3.05;;
26181;SDS011;13927;51.534;11.866;2024-01-16T09:07:18;5.88;;;2.75;;
26181;SDS011;13927;51.534;11.866;2024-01-16T09:09:44;8.05;;;2.65;;
26181;SDS011;13927;51.534;11.866;2024-01-16T09:12:10;3.95;;;2.50;;
26181;SDS011;13927;51.534;11.866;2024-01-16T09:14:36;9.43;;;2.42;;
26181;SDS011;13927;51.534;11.866;2024-01-16T09:17:02;10.90;;;2.75;;
26181;SDS011;13927;51.534;11.866;2024-01-16T09:19:29;5.68;;;2.83;;
26181;SDS011;13927;51.534;11.866;2024-01-16T09:21:56;6.38;;;2.70;;
26181;SDS011;13927;51.534;11.866;2024-01-16T09:24:22;3.17;;;2.47;;
26181;SDS011;13927;51.534;11.866;2024-01-16T09:26:48;6.15;;;2.33;;
26181;SDS011;13927;51.534;11.866;2024-01-16T09:29:14;5.60;;;2.78;;
26181;SDS011;13927;51.534;11.866;2024-01-16T09:31:41;5.38;;;2.85;;
26181;SDS011;13927;51.534;11.866;2024-01-16T09:34:07;8.00;;;3.42;;
26181;SDS011;13927;51.534;11.866;2024-01-16T09:36:34;4.82;;;2.13;;
26181;SDS011;13927;51.534;11.866;2024-01-16T09:39:01;5.13;;;3.13;;
26181;SDS011;13927;51.534;11.866;2024-01-16T09:41:32;5.33;;;2.47;;
26181;SDS011;13927;51.534;11.866;2024-01-16T09:43:59;5.00;;;2.42;;
26181;SDS011;13927;51.534;11.866;2024-01-16T09:46:26;7.25;;;3.10;;
26181;SDS011;13927;51.534;11.866;2024-01-16T09:48:54;6.43;;;3.10;;
26181;SDS011;13927;51.534;11.866;2024-01-16T09:51:21;4.95;;;2.15;;
26181;SDS011;13927;51.534;11.866;2024-01-16T09:53:48;3.80;;;2.55;;
26181;SDS011;13927;51.534;11.866;2024-01-16T09:56:14;5.20;;;2.70;;
26181;SDS011;13927;51.534;11.866;2024-01-16T09:58:42;7.60;;;3.35;;
26181;SDS011;13927;51.534;11.866;2024-01-16T10:01:10;4.80;;;2.67;;
26181;SDS011;13927;51.534;11.866;2024-01-16T10:03:38;8.65;;;3.28;;
26181;SDS011;13927;51.534;11.866;2024-01-16T10:06:07;7.18;;;2.95;;
26181;SDS011;13927;51.534;11.866;2024-01-16T10:08:34;8.65;;;3.58;;
26181;SDS011;13927;51.534;11.866;2024-01-16T10:11:04;5.55;;;3.20;;
26181;SDS011;13927;51.534;11.866;2024-01-16T10:13:32;6.15;;;2.80;;
26181;SDS011;13927;51.534;11.866;2024-01-16T10:16:03;6.45;;;3.20;;
26181;SDS011;13927;51.534;11.866;2024-01-16T10:18:34;7.20;;;2.60;;
26181;SDS011;13927;51.534;11.866;2024-01-16T10:21:04;7.97;;;2.70;;
26181;SDS011;13927;51.534;11.866;2024-01-16T10:23:48;6.78;;;2.58;;
26181;SDS011;13927;51.534;11.866;2024-01-16T10:26:16;7.10;;;2.78;;
26181;SDS011;13927;51.534;11.866;2024-01-16T10:28:44;7.22;;;2.45;;
26181;SDS011;13927;51.534;11.866;2024-01-16T10:31:13;4.05;;;2.20;;
26181;SDS011;13927;51.534;11.866;2024-01-16T10:33:40;8.65;;;2.92;;
26181;SDS011;13927;51.534;11.866;2024-01-16T10:36:09;4.47;;;2.25;;
26181;SDS011;13927;51.534;11.866;2024-01-16T10:38:46;6.32;;;2.22;;
26181;SDS011;13927;51.534;11.866;2024-01-16T10:41:17;8.88;;;2.35;;
26181;SDS011;13927;51.534;11.866;2024-01-16T10:44:12;5.60;;;2.60;;
26181;SDS011;13927;51.534;11.866;2024-01-16T10:46:39;4.57;;;2.40;;
26181;SDS011;13927;51.534;11.866;2024-01-16T10:49:08;5.15;;;2.20;;
26181;SDS011;13927;51.534;11.866;2024-01-16T10:51:35;3.92;;;1.90;;
26181;SDS011;13927;51.534;11.866;2024-01-16T10:54:05;7.30;;;2.65;;
26181;SDS011;13927;51.534;11.866;2024-01-16T10:56:49;5.13;;;2.33;;
26181;SDS011;13927;51.534;11.866;2024-01-16T11:01:59;6.70;;;3.10;;
26181;SDS011;13927;51.534;11.866;2024-01-16T11:04:29;4.68;;;2.85;;
26181;SDS011;13927;51.534;11.866;2024-01-16T11:07:00;8.65;;;2.30;;
26181;SDS011;13927;51.534;11.866;2024-01-16T11:09:31;7.45;;;2.08;;
26181;SDS011;13927;51.534;11.866;2024-01-16T11:11:59;4.38;;;2.40;;
26181;SDS011;13927;51.534;11.866;2024-01-16T11:14:27;8.10;;;2.50;;
26181;SDS011;13927;51.534;11.866;2024-01-16T11:16:56;6.03;;;2.65;;
26181;SDS011;13927;51.534;11.866;2024-01-16T11:19:27;4.15;;;2.00;;
26181;SDS011;13927;51.534;11.866;2024-01-16T11:21:56;4.88;;;2.42;;
26181;SDS011;13927;51.534;11.866;2024-01-16T11:24:25;5.80;;;2.20;;
26181;SDS011;13927;51.534;11.866;2024-01-16T11:26:55;6.25;;;2.50;;
26181;SDS011;13927;51.534;11.866;2024-01-16T11:31:57;4.97;;;2.25;;
26181;SDS011;13927;51.534;11.866;2024-01-16T11:37:11;6.28;;;2.90;;
26181;SDS011;13927;51.534;11.866;2024-01-16T11:39:39;6.93;;;2.67;;
26181;SDS011;13927;51.534;11.866;2024-01-16T11:42:06;6.00;;;2.72;;
26181;SDS011;13927;51.534;11.866;2024-01-16T11:44:41;4.47;;;1.85;;
26181;SDS011;13927;51.534;11.866;2024-01-16T11:47:19;4.05;;;2.45;;
26181;SDS011;13927;51.534;11.866;2024-01-16T11:49:51;6.78;;;2.70;;
26181;SDS011;13927;51.534;11.866;2024-01-16T11:52:54;5.75;;;2.15;;
26181;SDS011;13927;51.534;11.866;2024-01-16T12:01:11;3.63;;;1.85;;
26181;SDS011;13927;51.534;11.866;2024-01-16T12:03:42;5.20;;;1.95;;
26181;SDS011;13927;51.534;11.866;2024-01-16T12:06:11;8.95;;;2.90;;
26181;SDS011;13927;51.534;11.866;2024-01-16T12:08:43;5.28;;;2.10;;
26181;SDS011;13927;51.534;11.866;2024-01-16T12:11:18;7.37;;;2.70;;
26181;SDS011;13927;51.534;11.866;2024-01-16T12:14:03;6.57;;;2.65;;
26181;SDS011;13927;51.534;11.866;2024-01-16T12:16:32;4.70;;;2.55;;
26181;SDS011;13927;51.534;11.866;2024-01-16T12:19:04;7.32;;;2.70;;
26181;SDS011;13927;51.534;11.866;2024-01-16T12:21:41;5.90;;;3.05;;
26181;SDS011;13927;51.534;11.866;2024-01-16T12:24:15;11.02;;;3.38;;
26181;SDS011;13927;51.534;11.866;2024-01-16T12:26:44;4.85;;;2.42;;
26181;SDS011;13927;51.534;11.866;2024-01-16T12:29:12;8.50;;;3.05;;
26181;SDS011;13927;51.534;11.866;2024-01-16T12:31:45;6.95;;;3.20;;
26181;SDS011;13927;51.534;11.866;2024-01-16T12:34:14;4.68;;;3.10;;
26181;SDS011;13927;51.534;11.866;2024-01-16T12:36:43;6.78;;;2.83;;
26181;SDS011;13927;51.534;11.866;2024-01-16T12:39:13;8.35;;;2.95;;
26181;SDS011;13927;51.534;11.866;2024-01-16T12:41:44;7.22;;;3.13;;
26181;SDS011;13927;51.534;11.866;2024-01-16T12:44:14;8.35;;;2.97;;
26181;SDS011;13927;51.534;11.866;2024-01-16T12:46:53;4.97;;;2.90;;
26181;SDS011;13927;51.534;11.866;2024-01-16T12:49:24;5.82;;;3.40;;
26181;SDS011;13927;51.534;11.866;2024-01-16T12:52:14;6.13;;;3.17;;
26181;SDS011;13927;51.534;11.866;2024-01-16T12:54:44;5.68;;;2.88;;
26181;SDS011;13927;51.534;11.866;2024-01-16T12:57:25;8.70;;;3.78;;
26181;SDS011;13927;51.534;11.866;2024-01-16T12:59:55;8.25;;;3.75;;
26181;SDS011;13927;51.534;11.866;2024-01-16T13:02:28;7.05;;;3.85;;
26181;SDS011;13927;51.534;11.866;2024-01-16T13:04:59;6.68;;;3.58;;
26181;SDS011;13927;51.534;11.866;2024-01-16T13:07:30;4.53;;;3.28;;
26181;SDS011;13927;51.534;11.866;2024-01-16T13:10:11;7.10;;;4.20;;
26181;SDS011;13927;51.534;11.866;2024-01-16T13:12:44;12.02;;;4.15;;
26181;SDS011;13927;51.534;11.866;2024-01-16T13:15:13;10.23;;;4.03;;
26181;SDS011;13927;51.534;11.866;2024-01-16T13:17:42;7.57;;;3.90;;
26181;SDS011;13927;51.534;11.866;2024-01-16T13:20:09;7.13;;;4.07;;
26181;SDS011;13927;51.534;11.866;2024-01-16T13:22:37;7.13;;;3.90;;
26181;SDS011;13927;51.534;11.866;2024-01-16T13:25:04;7.45;;;3.50;;
26181;SDS011;13927;51.534;11.866;2024-01-16T13:27:31;9.18;;;4.47;;
26181;SDS011;13927;51.534;11.866;2024-01-16T13:29:57;8.55;;;4.00;;
26181;SDS011;13927;51.534;11.866;2024-01-16T13:32:24;11.23;;;4.40;;
26181;SDS011;13927;51.534;11.866;2024-01-16T13:34:51;6.75;;;3.97;;
26181;SDS011;13927;51.534;11.866;2024-01-16T13:37:21;8.05;;;4.65;;
26181;SDS011;13927;51.534;11.866;2024-01-16T13:39:48;6.97;;;4.25;;
26181;SDS011;13927;51.534;11.866;2024-01-16T13:42:14;7.38;;;3.58;;
26181;SDS011;13927;51.534;11.866;2024-01-16T13:44:43;7.13;;;3.80;;
26181;SDS011;13927;51.534;11.866;2024-01-16T13:47:10;6.63;;;3.63;;
26181;SDS011;13927;51.534;11.866;2024-01-16T13:49:37;11.40;;;4.78;;
26181;SDS011;13927;51.534;11.866;2024-01-16T13:52:03;7.85;;;3.63;;
26181;SDS011;13927;51.534;11.866;2024-01-16T13:54:30;7.82;;;4.60;;
26181;SDS011;13927;51.534;11.866;2024-01-16T13:56:56;7.80;;;3.67;;
26181;SDS011;13927;51.534;11.866;2024-01-16T13:59:22;8.25;;;4.13;;
26181;SDS011;13927;51.534;11.866;2024-01-16T14:01:49;9.23;;;4.32;;
26181;SDS011;13927;51.534;11.866;2024-01-16T14:04:16;8.95;;;3.80;;
26181;SDS011;13927;51.534;11.866;2024-01-16T14:06:42;8.93;;;3.97;;
26181;SDS011;13927;51.534;11.866;2024-01-16T14:09:08;11.38;;;4.70;;
26181;SDS011;13927;51.534;11.866;2024-01-16T14:11:35;9.98;;;4.50;;
26181;SDS011;13927;51.534;11.866;2024-01-16T14:14:02;6.57;;;4.35;;
26181;SDS011;13927;51.534;11.866;2024-01-16T14:16:28;6.72;;;3.80;;
26181;SDS011;13927;51.534;11.866;2024-01-16T14:18:54;8.63;;;3.40;;
26181;SDS011;13927;51.534;11.866;2024-01-16T14:21:19;7.80;;;3.78;;
26181;SDS011;13927;51.534;11.866;2024-01-16T14:23:45;7.20;;;4.03;;
26181;SDS011;13927;51.534;11.866;2024-01-16T14:26:11;6.88;;;4.13;;
26181;SDS011;13927;51.534;11.866;2024-01-16T14:28:36;7.50;;;3.80;;
26181;SDS011;13927;51.534;11.866;2024-01-16T14:31:02;5.80;;;3.65;;
26181;SDS011;13927;51.534;11.866;2024-01-16T14:33:28;7.05;;;3.47;;
26181;SDS011;13927;51.534;11.866;2024-01-16T14:35:54;7.95;;;3.72;;
26181;SDS011;13927;51.534;11.866;2024-01-16T14:38:20;6.68;;;3.88;;
26181;SDS011;13927;51.534;11.866;2024-01-16T14:40:46;8.07;;;3.22;;
26181;SDS011;13927;51.534;11.866;2024-01-16T14:43:12;6.93;;;3.50;;
26181;SDS011;13927;51.534;11.866;2024-01-16T14:45:37;5.43;;;2.90;;
26181;SDS011;13927;51.534;11.866;2024-01-16T14:48:03;8.10;;;3.20;;